Time;durP1;ratioP1;P1;durP2;ratioP2;P2;SDS_P1;SDS_P2;PMS_P1;PMS_P2;Temp;Humidity;BMP_temperature;BMP_pressure;BME280_temperature;BME280_humidity;BME280_pressure;Samples;Min_cycle;Max_cycle;Signal;HPM_P1;HPM_P2
2023/04/07 00:01:02;;;;;;;11.87;8.70;;;4.60;68.70;;;4.35;48.02;94678.50;5074156;28;20466;-66
2023/04/07 00:03:29;;;;;;;11.63;8.03;;;4.60;68.80;;;4.35;48.02;94677.69;5078907;28;20478;-58
2023/04/07 00:05:56;;;;;;;10.67;7.73;;;4.60;68.60;;;4.37;47.76;94675.78;5077176;28;20561;-58
2023/04/07 00:08:26;;;;;;;11.37;6.90;;;4.60;68.70;;;4.37;48.17;94673.19;5072794;28;21179;-67
2023/04/07 00:10:53;;;;;;;8.27;7.43;;;4.60;68.80;;;4.36;48.14;94669.75;5071251;28;20462;-66
2023/04/07 00:13:22;;;;;;;10.83;7.10;;;4.60;68.50;;;4.36;48.22;94664.56;5081204;28;20478;-57
2023/04/07 00:15:49;;;;;;;15.87;8.90;;;4.60;68.40;;;4.36;48.25;94669.75;5078806;28;20454;-57
2023/04/07 00:18:16;;;;;;;18.23;7.40;;;4.60;68.50;;;4.38;48.49;94672.25;5081138;28;20478;-56
2023/04/07 00:20:44;;;;;;;9.77;7.47;;;4.60;68.70;;;4.40;48.32;94667.75;5080982;28;20469;-66
2023/04/07 00:23:11;;;;;;;11.63;7.23;;;4.60;68.70;;;4.39;48.16;94663.50;5081887;28;21322;-67
2023/04/07 00:25:38;;;;;;;16.03;7.50;;;4.60;68.30;;;4.38;47.51;94667.03;5077446;28;20454;-57
2023/04/07 00:28:06;;;;;;;9.77;7.73;;;4.60;68.20;;;4.39;48.34;94666.13;5079525;28;20513;-56
2023/04/07 00:30:34;;;;;;;10.93;7.30;;;4.60;68.60;;;4.40;48.15;94665.16;5076640;28;20808;-67
2023/04/07 00:33:02;;;;;;;9.10;7.33;;;4.60;68.60;;;4.40;48.24;94666.00;5079149;28;20849;-66
2023/04/07 00:35:29;;;;;;;12.03;7.97;;;4.60;68.30;;;4.40;48.15;94665.16;5086015;28;21329;-57
2023/04/07 00:37:56;;;;;;;11.07;7.50;;;4.60;68.40;;;4.41;48.13;94669.44;5080654;28;20479;-66
2023/04/07 00:40:24;;;;;;;9.20;6.90;;;4.60;68.60;;;4.41;48.22;94666.84;5083783;28;20515;-57
2023/04/07 00:42:52;;;;;;;14.23;8.13;;;4.70;68.50;;;4.40;48.06;94663.41;5083300;28;20474;-57
2023/04/07 00:45:19;;;;;;;16.20;8.37;;;4.60;68.30;;;4.40;48.38;94665.16;5079522;28;20469;-56
2023/04/07 00:47:48;;;;;;;11.43;8.10;;;4.70;68.80;;;4.39;48.73;94658.31;5081721;28;20944;-67
2023/04/07 00:50:15;;;;;;;11.53;8.10;;;4.60;68.60;;;4.38;48.25;94664.44;5079702;28;20455;-57
2023/04/07 00:52:43;;;;;;;9.03;7.33;;;4.60;68.20;;;4.36;47.68;94664.56;5079593;28;20543;-66
2023/04/07 00:55:10;;;;;;;9.80;6.80;;;4.60;68.20;;;4.37;48.05;94665.38;5081075;28;20455;-68
2023/04/07 00:57:38;;;;;;;11.63;8.50;;;4.60;68.00;;;4.37;48.05;94666.22;5082106;28;20474;-66
2023/04/07 01:00:07;;;;;;;13.43;7.10;;;4.60;68.40;;;4.40;47.84;94659.94;5076201;28;20917;-65
2023/04/07 01:02:37;;;;;;;10.07;7.13;;;4.60;68.20;;;4.41;47.56;94661.63;5082646;28;20470;-66
2023/04/07 01:05:11;;;;;;;8.37;6.50;;;4.60;67.80;;;4.41;47.55;94662.44;5079937;28;20449;-67
2023/04/07 01:07:53;;;;;;;8.63;6.60;;;4.60;67.20;;;4.42;47.25;94653.69;5082279;28;20539;-66
2023/04/07 01:10:33;;;;;;;9.03;7.27;;;4.70;67.10;;;4.44;47.26;94656.19;5082843;28;20446;-66
2023/04/07 01:13:05;;;;;;;11.17;6.67;;;4.70;67.20;;;4.46;47.49;94662.97;5081712;28;20482;-66
2023/04/07 01:15:33;;;;;;;8.93;6.73;;;4.70;67.10;;;4.47;47.36;94655.97;5080603;28;20826;-67
2023/04/07 01:18:07;;;;;;;11.33;7.17;;;4.70;66.90;;;4.48;47.36;94655.88;5084239;28;20586;-56
2023/04/07 01:20:36;;;;;;;8.33;6.97;;;4.70;66.80;;;4.52;47.03;94653.06;5084988;28;20541;-68
2023/04/07 01:23:06;;;;;;;10.27;6.90;;;4.70;66.60;;;4.54;46.82;94652.03;5081259;28;20478;-57
2023/04/07 01:26:04;;;;;;;14.00;6.87;;;4.80;67.50;;;4.58;46.80;94650.03;5082537;28;20447;-68
2023/04/07 01:28:45;;;;;;;7.17;6.30;;;4.80;66.80;;;4.60;46.71;94651.59;5083304;28;20496;-67
2023/04/07 01:31:13;;;;;;;10.07;7.17;;;4.80;66.70;;;4.63;46.92;94642.69;5084092;28;20518;-56
2023/04/07 01:33:41;;;;;;;10.37;7.00;;;4.90;66.60;;;4.66;46.62;94645.09;5079956;28;20471;-66
2023/04/07 01:36:09;;;;;;;7.83;5.90;;;4.90;66.30;;;4.69;46.86;94646.66;5081592;28;20450;-57
2023/04/07 01:38:36;;;;;;;11.33;6.47;;;4.90;66.20;;;4.72;46.84;94643.81;5080228;28;20466;-57
2023/04/07 01:41:04;;;;;;;7.53;6.07;;;4.90;66.10;;;4.74;45.88;94642.78;5083672;28;20538;-66
2023/04/07 01:43:31;;;;;;;7.17;6.10;;;5.00;65.40;;;4.79;46.49;94647.66;5079926;28;20478;-66
2023/04/07 01:45:59;;;;;;;7.20;6.00;;;5.00;65.40;;;4.81;46.67;94643.16;5082517;28;20500;-67
2023/04/07 01:48:27;;;;;;;14.77;7.70;;;5.00;65.90;;;4.81;46.72;94637.97;5079494;28;20497;-56
2023/04/07 01:50:55;;;;;;;18.43;9.27;;;5.00;66.60;;;4.77;47.18;94637.34;5077736;28;20845;-57
2023/04/07 01:53:22;;;;;;;11.60;8.40;;;5.00;66.90;;;4.73;47.31;94642.91;5081345;28;20474;-66
2023/04/07 01:55:49;;;;;;;11.97;7.83;;;5.00;67.10;;;4.69;47.22;94638.84;5093872;28;20458;-57
2023/04/07 01:58:16;;;;;;;10.23;7.13;;;4.90;67.30;;;4.65;47.17;94633.03;5083019;28;20478;-67
2023/04/07 02:00:44;;;;;;;9.10;7.10;;;4.90;67.00;;;4.66;47.25;94625.09;5076206;28;20458;-56
2023/04/07 02:03:19;;;;;;;11.33;7.73;;;4.90;67.00;;;4.67;46.76;94623.31;5078967;28;20482;-67
2023/04/07 02:05:48;;;;;;;12.27;6.93;;;4.90;66.10;;;4.70;47.05;94625.69;5078918;28;20437;-67
2023/04/07 02:08:16;;;;;;;10.10;6.50;;;4.90;66.70;;;4.73;46.50;94627.25;5078727;28;20501;-57
2023/04/07 02:10:43;;;;;;;13.00;6.23;;;4.90;65.70;;;4.76;46.37;94620.06;5081906;28;20532;-58
2023/04/07 02:13:12;;;;;;;9.00;6.20;;;4.90;65.40;;;4.80;46.80;94628.47;5080073;28;20478;-57
2023/04/07 02:15:39;;;;;;;9.63;7.07;;;5.00;66.20;;;4.84;46.23;94627.31;5080235;28;20974;-67
2023/04/07 02:18:06;;;;;;;8.60;7.50;;;5.00;65.50;;;4.87;46.48;94632.31;5084647;28;20493;-66
2023/04/07 02:20:35;;;;;;;9.33;6.40;;;5.10;65.60;;;4.90;46.31;94629.47;5081965;28;20569;-58
2023/04/07 02:23:04;;;;;;;7.87;6.33;;;5.10;65.60;;;4.95;46.52;94635.19;5079727;28;20546;-57
2023/04/07 02:25:33;;;;;;;22.73;8.87;;;5.10;65.60;;;4.97;46.56;94630.69;5072408;28;20455;-66
2023/04/07 02:28:00;;;;;;;16.83;11.83;;;5.20;65.90;;;4.96;47.36;94631.63;5080673;28;20497;-58
2023/04/07 02:30:28;;;;;;;18.93;12.03;;;5.20;67.80;;;4.89;47.92;94637.41;5082663;28;20457;-56
2023/04/07 02:32:55;;;;;;;16.57;11.43;;;5.10;68.30;;;4.79;48.74;94639.84;5081289;28;20537;-66
2023/04/07 02:35:23;;;;;;;16.33;10.97;;;5.00;69.20;;;4.72;48.01;94641.22;5079062;28;20854;-66
2023/04/07 02:37:50;;;;;;;16.17;11.80;;;5.00;69.30;;;4.63;49.31;94635.75;5080797;28;20478;-57
2023/04/07 02:40:19;;;;;;;17.97;11.73;;;4.90;70.30;;;4.60;49.72;94635.09;5081409;28;20463;-66
2023/04/07 02:42:47;;;;;;;19.10;12.00;;;4.80;70.40;;;4.55;49.46;94648.44;5081856;28;20558;-66
2023/04/07 02:45:14;;;;;;;17.00;12.60;;;4.80;70.60;;;4.48;50.39;94645.47;5080394;28;20619;-67
2023/04/07 02:47:42;;;;;;;19.70;11.90;;;4.70;71.50;;;4.39;49.44;94642.69;5079599;28;20906;-66
2023/04/07 02:50:10;;;;;;;17.80;12.23;;;4.70;71.00;;;4.31;50.36;94638.84;5077637;28;20497;-66
2023/04/07 02:52:37;;;;;;;21.93;12.67;;;4.60;71.60;;;4.28;50.25;94646.88;5074336;28;20492;-66
2023/04/07 02:55:06;;;;;;;13.70;10.13;;;4.50;71.70;;;4.25;49.48;94641.03;5079493;28;20455;-66
2023/04/07 02:57:34;;;;;;;12.30;9.40;;;4.50;71.30;;;4.27;49.15;94646.97;5082399;28;20474;-67
2023/04/07 03:00:02;;;;;;;7.50;6.33;;;4.50;70.70;;;4.32;48.59;94642.25;5075379;28;20455;-55
2023/04/07 03:02:29;;;;;;;11.60;7.17;;;4.60;69.50;;;4.40;48.66;94644.31;5076851;28;20478;-57
2023/04/07 03:04:57;;;;;;;11.30;7.03;;;4.60;69.20;;;4.48;48.13;94645.47;5076016;28;20454;-66
2023/04/07 03:07:24;;;;;;;10.27;7.43;;;4.70;68.90;;;4.55;47.33;94643.25;5082642;28;20653;-56
2023/04/07 03:09:52;;;;;;;9.43;6.47;;;4.70;67.60;;;4.64;46.81;94641.78;5075234;28;20541;-57
2023/04/07 03:12:19;;;;;;;11.00;6.37;;;4.80;66.80;;;4.73;46.68;94637.69;5079317;28;20903;-57
2023/04/07 03:14:48;;;;;;;8.53;6.17;;;4.90;66.60;;;4.79;46.64;94639.84;5078317;28;20573;-55
2023/04/07 03:17:15;;;;;;;8.30;6.87;;;5.00;66.40;;;4.84;46.35;94633.34;5073393;28;20971;-56
2023/04/07 03:19:42;;;;;;;6.73;5.77;;;5.00;65.50;;;4.90;46.49;94634.69;5080655;28;20517;-56
2023/04/07 03:22:10;;;;;;;13.60;6.13;;;5.10;65.60;;;4.95;45.85;94642.16;5075720;28;20979;-56
2023/04/07 03:24:38;;;;;;;8.60;5.60;;;5.10;64.90;;;4.96;45.23;94636.84;5084531;28;20443;-67
2023/04/07 03:27:05;;;;;;;8.63;6.60;;;5.20;64.40;;;4.97;45.70;94630.69;5082237;28;20482;-66
2023/04/07 03:29:33;;;;;;;8.90;6.50;;;5.20;65.50;;;4.97;45.34;94633.31;5081767;28;20486;-58
2023/04/07 03:32:01;;;;;;;10.53;6.87;;;5.20;64.00;;;4.95;45.53;94636.97;5078160;28;20482;-56
2023/04/07 03:34:29;;;;;;;8.20;6.80;;;5.20;64.00;;;4.95;45.68;94637.78;5077161;28;20462;-67
2023/04/07 03:36:56;;;;;;;10.17;6.40;;;5.20;64.10;;;4.94;45.02;94643.09;5082885;28;20481;-58
2023/04/07 03:39:23;;;;;;;6.50;5.57;;;5.10;63.80;;;4.92;45.16;94640.59;5082962;28;20462;-57
2023/04/07 03:41:51;;;;;;;10.93;6.30;;;5.10;63.80;;;4.93;45.42;94638.84;5084634;28;20497;-68
2023/04/07 03:44:19;;;;;;;6.77;5.60;;;5.10;64.00;;;4.93;44.81;94637.06;5082341;28;20499;-58
2023/04/07 03:46:47;;;;;;;8.53;5.70;;;5.10;63.20;;;4.94;45.41;94641.34;5077827;28;20849;-55
2023/04/07 03:49:15;;;;;;;13.30;5.90;;;5.10;63.70;;;4.96;45.83;94641.25;5077067;28;20491;-60
2023/04/07 03:51:43;;;;;;;10.93;6.73;;;5.20;64.50;;;4.98;45.26;94647.97;5081383;28;20462;-71
2023/04/07 03:54:10;;;;;;;6.37;5.60;;;5.20;64.00;;;5.00;45.60;94637.44;5081718;28;20453;-71
2023/04/07 03:56:37;;;;;;;11.50;6.57;;;5.20;64.30;;;5.04;45.11;94646.72;5081443;28;20508;-71
2023/04/07 03:59:05;;;;;;;9.60;6.03;;;5.20;63.60;;;5.03;45.17;94648.50;5089740;28;20442;-70
2023/04/07 04:01:32;;;;;;;10.80;6.90;;;5.20;63.70;;;5.00;45.33;94653.94;5087724;28;20468;-71
2023/04/07 04:04:00;;;;;;;7.70;5.83;;;5.20;64.00;;;5.03;45.10;94648.50;5089031;28;20472;-56
2023/04/07 04:06:28;;;;;;;9.47;6.87;;;5.30;63.80;;;5.03;44.81;94653.72;5088506;28;20450;-57
2023/04/07 04:08:56;;;;;;;15.00;6.63;;;5.20;63.50;;;5.08;47.06;94658.59;5085532;28;21056;-73
2023/04/07 04:11:23;;;;;;;13.00;5.83;;;5.30;68.00;;;5.15;46.40;94656.34;5081776;28;20457;-57
2023/04/07 04:13:50;;;;;;;9.67;6.50;;;5.30;66.00;;;5.20;46.59;94659.44;5082747;28;20560;-71
2023/04/07 04:16:18;;;;;;;12.33;6.60;;;5.40;66.30;;;5.27;46.19;94663.28;5084500;28;20472;-71
2023/04/07 04:18:45;;;;;;;20.87;13.20;;;5.40;65.80;;;5.31;46.44;94672.53;5086985;28;20511;-70
2023/04/07 04:21:12;;;;;;;23.13;11.10;;;5.50;66.00;;;5.23;46.93;94672.25;5076984;28;20887;-57
2023/04/07 04:23:41;;;;;;;22.20;11.63;;;5.50;67.20;;;5.06;47.78;94663.06;5082233;28;20482;-56
2023/04/07 04:26:08;;;;;;;38.83;11.67;;;5.40;68.20;;;4.92;48.30;94665.84;5085454;28;20454;-56
2023/04/07 04:28:35;;;;;;;19.20;10.90;;;5.20;68.80;;;4.80;48.79;94673.63;5084200;28;20497;-71
2023/04/07 04:31:03;;;;;;;16.80;11.57;;;5.10;69.80;;;4.74;48.93;94678.41;5082552;28;20458;-58
2023/04/07 04:33:30;;;;;;;18.87;11.90;;;5.00;70.60;;;4.66;49.53;94677.19;5080570;28;20485;-69
2023/04/07 04:35:57;;;;;;;21.53;12.67;;;4.90;71.70;;;4.63;49.55;94686.97;5083080;28;21025;-76
2023/04/07 04:38:25;;;;;;;15.93;11.57;;;4.90;71.50;;;4.58;50.07;94684.69;5081224;28;21025;-68
2023/04/07 04:40:53;;;;;;;23.97;11.80;;;4.90;71.90;;;4.52;50.28;94679.91;5076853;28;20469;-67
2023/04/07 04:43:21;;;;;;;16.50;11.20;;;4.80;72.50;;;4.47;51.00;94687.22;5078833;28;20510;-58
2023/04/07 04:45:48;;;;;;;18.27;11.80;;;4.70;74.10;;;4.41;51.06;94688.47;5077727;28;20469;-68
2023/04/07 04:48:16;;;;;;;21.13;11.40;;;4.70;74.00;;;4.37;51.43;94694.88;5081963;28;20767;-57
2023/04/07 04:50:43;;;;;;;21.40;12.93;;;4.60;73.80;;;4.34;51.38;94684.66;5082116;28;20446;-56
2023/04/07 04:53:10;;;;;;;25.33;13.20;;;4.60;74.00;;;4.33;51.88;94689.97;5079994;28;20966;-72
2023/04/07 04:55:39;;;;;;;25.90;12.30;;;4.60;75.10;;;4.28;51.34;94696.31;5083348;28;20438;-56
2023/04/07 04:58:08;;;;;;;22.00;12.43;;;4.50;74.60;;;4.26;51.25;94694.75;5082823;28;20492;-69
2023/04/07 05:00:35;;;;;;;19.90;11.90;;;4.50;74.70;;;4.28;50.97;94700.72;5080969;28;20454;-68
2023/04/07 05:03:03;;;;;;;21.67;13.07;;;4.50;74.90;;;4.28;51.85;94704.13;5079635;28;20480;-57
2023/04/07 05:05:30;;;;;;;19.50;11.20;;;4.50;75.50;;;4.28;51.44;94698.09;5079872;28;20504;-68
2023/04/07 05:07:57;;;;;;;20.83;11.83;;;4.50;75.10;;;4.30;51.41;94704.84;5082572;28;20535;-67
2023/04/07 05:10:25;;;;;;;21.53;10.60;;;4.50;75.00;;;4.32;51.58;94702.13;5078205;28;21040;-68
2023/04/07 05:12:52;;;;;;;25.90;11.40;;;4.50;75.90;;;4.34;51.79;94713.31;5081120;28;20477;-68
2023/04/07 05:15:21;;;;;;;22.53;12.40;;;4.60;75.70;;;4.36;51.51;94727.03;5078526;28;20572;-58
2023/04/07 05:17:49;;;;;;;24.03;12.30;;;4.60;75.60;;;4.38;51.91;94713.91;5084165;28;20521;-57
2023/04/07 05:20:16;;;;;;;16.33;11.57;;;4.60;76.50;;;4.37;51.43;94718.31;5081816;28;20481;-68
2023/04/07 05:22:44;;;;;;;20.53;12.00;;;4.60;76.00;;;4.41;52.03;94719.72;5082733;28;20525;-57
2023/04/07 05:25:11;;;;;;;21.50;12.63;;;4.60;76.00;;;4.46;51.56;94722.03;5080003;28;20894;-68
2023/04/07 05:27:38;;;;;;;16.27;12.00;;;4.60;76.10;;;4.49;51.33;94717.44;5082203;28;20477;-57
2023/04/07 05:30:08;;;;;;;18.33;12.27;;;4.70;76.50;;;4.55;51.63;94721.38;5079944;28;20501;-58
2023/04/07 05:32:37;;;;;;;22.00;13.17;;;4.70;75.70;;;4.58;51.36;94710.75;5081616;28;20474;-57
2023/04/07 05:35:05;;;;;;;22.07;12.50;;;4.80;75.90;;;4.66;52.06;94721.47;5079440;28;20823;-57
2023/04/07 05:37:32;;;;;;;25.80;13.80;;;4.90;76.40;;;4.74;51.50;94714.88;5078859;28;20553;-67
2023/04/07 05:40:00;;;;;;;25.17;14.30;;;4.90;76.10;;;4.79;51.69;94718.00;5083039;28;20446;-68
2023/04/07 05:42:27;;;;;;;36.67;16.47;;;5.00;76.20;;;4.80;51.42;94720.50;5091219;28;20470;-57
2023/04/07 05:44:55;;;;;;;24.33;13.57;;;5.00;76.00;;;4.86;51.91;94724.44;5079642;28;20453;-58
2023/04/07 05:47:22;;;;;;;35.87;14.30;;;5.00;76.90;;;4.91;51.62;94721.50;5080746;28;20523;-68
2023/04/07 05:49:51;;;;;;;27.20;14.20;;;5.10;76.10;;;4.94;51.83;94724.75;5089377;28;20501;-59
2023/04/07 05:52:18;;;;;;;33.60;15.07;;;5.10;76.60;;;5.00;51.47;94724.31;5082977;28;20548;-68
2023/04/07 05:54:46;;;;;;;26.53;15.90;;;5.20;76.40;;;5.05;52.22;94718.78;5079386;28;20501;-67
2023/04/07 05:57:14;;;;;;;33.30;14.50;;;5.20;77.40;;;5.14;53.55;94723.31;5081761;28;20553;-67
2023/04/07 05:59:41;;;;;;;23.60;15.30;;;5.30;80.70;;;5.30;52.64;94719.56;5081203;28;20833;-55
2023/04/07 06:02:08;;;;;;;21.90;13.27;;;5.40;79.80;;;5.45;52.05;94718.47;5080909;28;20477;-68
2023/04/07 06:04:35;;;;;;;20.33;14.00;;;5.60;78.50;;;5.60;51.35;94719.13;5074780;28;20478;-57
2023/04/07 06:07:04;;;;;;;32.40;14.60;;;5.70;77.60;;;5.78;51.02;94716.06;5081257;28;20473;-56
2023/04/07 06:09:32;;;;;;;34.00;16.80;;;5.90;76.90;;;5.90;50.98;94718.63;5081360;28;21037;-68
2023/04/07 06:12:00;;;;;;;30.20;16.43;;;6.00;76.40;;;6.06;50.45;94714.88;5083871;28;20470;-68
2023/04/07 06:14:27;;;;;;;35.90;16.90;;;6.20;76.20;;;6.21;49.91;94718.09;5080139;28;20453;-57
2023/04/07 06:16:55;;;;;;;25.13;16.30;;;6.30;75.60;;;6.43;50.25;94719.91;5080769;28;20470;-57
2023/04/07 06:19:22;;;;;;;21.17;15.20;;;6.50;75.40;;;6.72;49.91;94715.00;5084087;28;20489;-58
2023/04/07 06:21:49;;;;;;;22.87;14.47;;;6.80;75.90;;;6.95;49.51;94718.44;5079451;28;20477;-58
2023/04/07 06:24:21;;;;;;;27.90;15.77;;;7.00;74.30;;;7.16;48.87;94710.66;5082137;28;20954;-68
2023/04/07 06:26:48;;;;;;;25.10;15.10;;;7.20;74.00;;;7.38;48.13;94716.78;5081042;28;20502;-69
2023/04/07 06:29:16;;;;;;;23.53;12.80;;;7.50;72.40;;;7.71;47.09;94720.22;5079224;28;20547;-57
2023/04/07 06:31:43;;;;;;;12.83;5.80;;;7.70;71.10;;;8.03;45.17;94706.25;5078491;28;20454;-57
2023/04/07 06:34:11;;;;;;;15.93;6.67;;;8.00;66.80;;;8.31;43.83;94715.25;5081365;28;20434;-58
2023/04/07 06:36:38;;;;;;;12.10;8.73;;;8.30;63.60;;;8.65;43.93;94711.56;5077307;28;20455;-57
2023/04/07 06:39:05;;;;;;;8.20;5.20;;;8.60;65.10;;;9.00;41.55;94713.78;5076857;28;20453;-58
2023/04/07 06:41:34;;;;;;;6.73;4.77;;;8.90;60.80;;;9.22;42.89;94702.22;5081839;28;20484;-59
2023/04/07 06:44:01;;;;;;;7.83;5.50;;;9.20;62.20;;;9.36;40.24;94713.25;5081108;28;20450;-68
2023/04/07 06:46:29;;;;;;;9.53;5.63;;;9.40;59.50;;;9.50;40.67;94705.00;5077442;28;20467;-68
2023/04/07 06:48:56;;;;;;;12.93;5.57;;;9.50;59.20;;;9.58;40.64;94704.31;5086326;28;20445;-69
2023/04/07 06:51:23;;;;;;;7.73;5.63;;;9.60;58.40;;;9.66;39.91;94720.19;5078587;28;20994;-58
2023/04/07 06:53:51;;;;;;;13.60;6.23;;;9.70;57.60;;;9.73;40.95;94715.22;5083001;28;20482;-69
2023/04/07 06:56:18;;;;;;;10.80;5.87;;;9.80;58.80;;;9.81;40.41;94712.75;5078499;28;20801;-69
2023/04/07 06:58:46;;;;;;;7.80;5.93;;;9.90;57.80;;;9.86;40.19;94718.41;5082207;28;20478;-69
2023/04/07 07:01:14;;;;;;;11.60;6.43;;;9.90;57.70;;;9.90;39.30;94721.56;5079006;28;20446;-57
2023/04/07 07:03:41;;;;;;;7.00;5.67;;;9.90;56.40;;;9.92;39.34;94711.78;5079045;28;20470;-57
2023/04/07 07:06:08;;;;;;;11.03;6.33;;;10.00;55.60;;;9.93;39.51;94716.88;5079158;28;20450;-69
2023/04/07 07:08:36;;;;;;;12.00;5.90;;;10.00;55.90;;;9.95;39.60;94717.56;5078933;28;20478;-67
2023/04/07 07:11:03;;;;;;;13.27;6.00;;;10.00;55.90;;;9.92;39.29;94717.84;5080148;28;20500;-68
2023/04/07 07:13:30;;;;;;;6.93;6.00;;;10.00;55.10;;;9.83;38.70;94729.19;5081213;28;20473;-69
2023/04/07 07:15:59;;;;;;;8.03;5.70;;;9.90;55.10;;;9.67;38.07;94727.94;5078204;28;20808;-57
2023/04/07 07:18:26;;;;;;;9.50;6.13;;;9.80;53.80;;;9.57;38.44;94723.66;5079403;28;20816;-67
2023/04/07 07:20:54;;;;;;;15.87;5.73;;;9.70;54.30;;;9.52;39.52;94730.13;5082089;28;20454;-58
2023/04/07 07:23:21;;;;;;;7.83;5.93;;;9.60;54.70;;;9.54;39.05;94727.38;5081165;28;20474;-57
2023/04/07 07:25:48;;;;;;;7.20;5.60;;;9.60;55.30;;;9.59;38.75;94726.97;5082087;28;20905;-58
2023/04/07 07:28:16;;;;;;;8.20;5.27;;;9.70;55.00;;;9.62;37.87;94735.41;5078774;28;20550;-68
2023/04/07 07:30:43;;;;;;;8.37;5.40;;;9.70;53.90;;;9.64;38.55;94730.84;5080742;28;21083;-67
2023/04/07 07:33:12;;;;;;;10.07;5.50;;;9.70;54.40;;;9.71;39.04;94738.16;5079640;28;20465;-56
2023/04/07 07:35:40;;;;;;;8.57;4.60;;;9.80;55.20;;;9.78;37.88;94736.66;5079799;28;20527;-68
2023/04/07 07:38:07;;;;;;;5.33;4.57;;;9.80;54.40;;;9.89;38.30;94731.25;5077680;28;20470;-58
2023/04/07 07:40:34;;;;;;;4.90;4.50;;;9.90;54.60;;;10.05;38.80;94738.56;5085523;28;20966;-70
2023/04/07 07:43:02;;;;;;;8.40;4.40;;;10.10;54.30;;;10.22;38.45;94742.28;5079722;28;20509;-56
2023/04/07 07:45:29;;;;;;;7.60;5.17;;;10.20;53.90;;;10.36;37.92;94739.25;5080917;28;20446;-57
2023/04/07 07:47:56;;;;;;;6.87;4.70;;;10.40;53.00;;;10.38;37.14;94745.19;5078305;28;20482;-69
2023/04/07 07:50:25;;;;;;;15.13;5.80;;;10.40;51.80;;;10.40;37.58;94751.13;5074647;28;20843;-58
2023/04/07 07:52:52;;;;;;;5.40;4.87;;;10.50;52.10;;;10.48;37.46;94732.03;5078538;28;20475;-67
2023/04/07 07:55:20;;;;;;;5.00;4.17;;;10.50;52.40;;;10.55;37.53;94742.78;5081594;28;20453;-67
2023/04/07 07:57:47;;;;;;;5.70;5.10;;;10.60;52.20;;;10.59;36.57;94736.28;5079240;28;20506;-66
2023/04/07 08:00:15;;;;;;;7.77;5.30;;;10.60;50.90;;;10.58;37.16;94748.63;5081083;28;20537;-68
2023/04/07 08:02:42;;;;;;;7.80;4.77;;;10.70;52.10;;;10.58;35.79;94743.34;5077251;28;20475;-56
2023/04/07 08:05:11;;;;;;;9.30;4.90;;;10.60;50.80;;;10.53;36.95;94750.84;5080904;28;20454;-58
2023/04/07 08:07:41;;;;;;;5.17;4.77;;;10.60;51.30;;;10.53;36.10;94745.59;5077353;28;20471;-67
2023/04/07 08:10:09;;;;;;;14.43;5.53;;;10.60;50.80;;;10.62;36.58;94749.16;5078131;28;20486;-56
2023/04/07 08:12:37;;;;;;;11.10;5.40;;;10.60;51.70;;;10.69;36.75;94758.13;5079199;28;20471;-68
2023/04/07 08:15:06;;;;;;;6.10;5.50;;;10.70;51.50;;;10.75;36.62;94748.81;5081872;28;20450;-57
2023/04/07 08:17:33;;;;;;;5.90;5.27;;;10.80;51.30;;;10.83;36.99;94750.72;5077299;28;20478;-59
2023/04/07 08:20:02;;;;;;;8.13;5.30;;;10.80;52.30;;;10.97;37.17;94750.28;5081041;28;21315;-68
2023/04/07 08:22:30;;;;;;;5.97;5.23;;;11.00;52.10;;;11.09;35.55;94746.47;5080112;28;20469;-68
2023/04/07 08:24:58;;;;;;;8.07;5.20;;;11.00;50.30;;;11.14;36.18;94759.22;5079452;28;20454;-68
2023/04/07 08:27:26;;;;;;;5.27;4.87;;;11.10;50.80;;;11.19;36.62;94745.59;5075455;28;20469;-57
2023/04/07 08:29:59;;;;;;;6.07;5.50;;;11.20;51.10;;;11.33;36.30;94758.28;5074778;28;20494;-56
2023/04/07 08:32:33;;;;;;;6.23;5.60;;;11.30;50.90;;;11.47;36.43;94755.13;5078350;28;20647;-69
2023/04/07 08:35:01;;;;;;;7.03;5.00;;;11.50;50.80;;;11.67;36.86;94755.00;5073068;28;20971;-68
2023/04/07 08:37:28;;;;;;;7.30;4.70;;;11.70;52.00;;;11.81;36.20;94745.75;5077113;28;20469;-59
2023/04/07 08:39:55;;;;;;;6.80;5.20;;;11.80;50.80;;;11.98;35.53;94742.31;5079389;28;20458;-68
2023/04/07 08:42:26;;;;;;;7.80;4.73;;;12.00;50.10;;;12.14;35.42;94744.25;5083258;28;20550;-69
2023/04/07 08:44:54;;;;;;;10.00;5.00;;;12.10;49.80;;;12.28;35.47;94747.34;5077463;28;20967;-68
2023/04/07 08:47:21;;;;;;;10.57;5.63;;;12.20;50.00;;;12.33;35.19;94740.63;5081894;28;20470;-58
2023/04/07 08:49:48;;;;;;;7.57;5.37;;;12.30;49.30;;;12.31;34.23;94750.47;5083438;28;20494;-69
2023/04/07 08:52:16;;;;;;;5.43;4.93;;;12.30;47.90;;;12.33;35.05;94745.91;5083832;28;20550;-58
2023/04/07 08:54:43;;;;;;;6.60;5.83;;;12.40;49.40;;;12.41;33.95;94746.94;5077420;28;20539;-68
2023/04/07 08:57:11;;;;;;;7.83;5.43;;;12.40;48.30;;;12.50;34.67;94752.13;5083358;28;20470;-57
2023/04/07 08:59:42;;;;;;;8.30;5.73;;;12.50;49.10;;;12.74;35.04;94750.63;5083249;28;20462;-57
2023/04/07 09:02:09;;;;;;;6.67;6.03;;;12.70;49.40;;;12.99;34.05;94748.09;5082099;28;20569;-57
2023/04/07 09:04:37;;;;;;;7.30;6.10;;;12.90;48.20;;;13.12;34.30;94751.16;5082572;28;20446;-68
2023/04/07 09:07:04;;;;;;;6.07;5.57;;;13.10;48.30;;;13.38;34.13;94761.66;5080716;28;20982;-69
2023/04/07 09:09:31;;;;;;;9.37;5.80;;;13.30;49.00;;;13.68;33.38;94745.41;5084684;28;20446;-58
2023/04/07 09:11:58;;;;;;;9.13;6.40;;;13.50;47.70;;;13.95;33.92;94742.47;5084000;28;20465;-59
2023/04/07 09:14:26;;;;;;;6.30;5.40;;;13.80;48.00;;;14.19;33.10;94737.34;5080845;28;20458;-58
2023/04/07 09:16:54;;;;;;;6.80;5.57;;;14.10;47.20;;;14.34;32.21;94744.50;5081506;28;20485;-56
2023/04/07 09:19:22;;;;;;;6.10;5.50;;;14.30;45.90;;;14.33;33.43;94747.31;5083251;28;20449;-58
2023/04/07 09:21:50;;;;;;;8.40;5.47;;;14.30;47.20;;;14.33;32.57;94745.47;5083208;28;20458;-57
2023/04/07 09:24:24;;;;;;;6.37;4.97;;;14.30;45.80;;;14.24;31.64;94749.09;5081662;28;20450;-68
2023/04/07 09:26:52;;;;;;;7.97;5.80;;;14.20;45.20;;;14.11;33.05;94748.75;5080387;28;20466;-58
2023/04/07 09:29:20;;;;;;;6.33;5.00;;;14.10;46.50;;;14.05;33.80;94744.13;5083999;28;20809;-68
2023/04/07 09:31:49;;;;;;;6.00;5.50;;;14.10;47.30;;;14.03;33.79;94749.59;5082957;28;20498;-59
2023/04/07 09:34:36;;;;;;;8.20;6.17;;;14.00;47.80;;;14.05;32.76;94755.56;5080622;28;20446;-69
2023/04/07 09:37:03;;;;;;;6.73;6.20;;;14.00;46.60;;;13.90;32.32;94754.53;5082348;28;20489;-58
2023/04/07 09:39:31;;;;;;;8.87;5.50;;;13.90;45.50;;;13.66;32.54;94763.25;5081951;28;20450;-68
2023/04/07 09:41:58;;;;;;;7.87;5.73;;;13.70;45.80;;;13.40;32.77;94758.84;5084599;28;20470;-68
2023/04/07 09:44:26;;;;;;;9.90;5.70;;;13.50;45.70;;;13.18;33.18;94761.06;5081802;28;20488;-69
2023/04/07 09:46:55;;;;;;;6.67;6.00;;;13.20;46.30;;;13.00;33.24;94765.63;5083225;28;20728;-69
2023/04/07 09:49:22;;;;;;;6.40;5.80;;;13.00;46.60;;;12.85;33.97;94766.19;5088536;28;20442;-57
2023/04/07 09:51:55;;;;;;;6.70;6.00;;;12.90;47.00;;;12.71;34.04;94758.84;5082867;28;20499;-68
2023/04/07 09:54:34;;;;;;;15.07;5.17;;;12.70;46.80;;;12.61;33.64;94755.47;5080799;28;20451;-57
2023/04/07 09:57:02;;;;;;;10.40;6.20;;;12.60;46.80;;;12.50;33.92;94753.91;5083842;28;20546;-70
2023/04/07 09:59:29;;;;;;;15.00;6.20;;;12.50;46.90;;;12.39;34.45;94757.63;5080520;28;20810;-58
2023/04/07 10:01:57;;;;;;;9.73;5.33;;;12.40;47.50;;;12.31;34.47;94762.84;5080500;28;20497;-58
2023/04/07 10:04:25;;;;;;;6.43;5.63;;;12.30;47.60;;;12.25;34.43;94763.47;5079668;28;20455;-67
2023/04/07 10:06:54;;;;;;;6.87;5.40;;;12.30;47.40;;;12.20;35.37;94766.56;5082023;28;20481;-59
2023/04/07 10:09:22;;;;;;;7.77;5.47;;;12.20;48.30;;;12.20;35.36;94772.66;5075683;28;20469;-57
2023/04/07 10:11:50;;;;;;;24.03;5.87;;;12.20;48.70;;;12.22;33.84;94763.75;5078723;28;20508;-66
2023/04/07 10:14:17;;;;;;;6.40;5.80;;;12.20;47.00;;;12.09;33.28;94749.16;5081934;28;20560;-67
2023/04/07 10:16:45;;;;;;;6.43;5.40;;;12.10;46.30;;;11.96;33.85;94761.88;5081428;28;20537;-59
2023/04/07 10:19:12;;;;;;;8.13;5.40;;;12.00;46.80;;;11.78;34.84;94760.06;5079417;28;20458;-58
2023/04/07 10:21:42;;;;;;;5.23;4.73;;;11.90;47.70;;;11.59;35.39;94768.13;5081518;28;21289;-58
2023/04/07 10:24:23;;;;;;;7.90;5.50;;;11.70;48.30;;;11.46;35.45;94764.03;5081868;28;20450;-58
2023/04/07 10:26:54;;;;;;;6.53;5.60;;;11.50;48.60;;;11.41;35.90;94763.63;5079919;28;20543;-58